Theodore, Alabama
Current Conditions -  °F | °C
As of 4:53 AM on Friday 21 Nov 2014 (Local Time) from KBFM Reporting Station
Light Fog Light Fog  
Wind Chill:   Ceiling: Unl
Heat Index:   Visibility: 7mi
Dew Point:   Wind: 3mph
Humidity: 97%   Direction: 310°NW
Pressure: 30.29"   Gusts: NA
Location:  30.55°N, 88.18°W
Report Text: KBFM 211053Z 31003KT 7SM MIFG CLR 06/06 A3029 RMK AO2 SLP258 T00610056
Loading
Personal Weather Stations






























Interactive Weather Map New forecast layout! Learn more

10-Day Weather Forecast

Advertisements
Track Severe Weather on mobile